sensor_id;sensor_type;location;lat;lon;timestamp;temperature;humidity
20045;DHT22;10183;47.808;9.476;2023-05-23T00:01:04;13.40;99.90
20045;DHT22;10183;47.808;9.476;2023-05-23T00:03:32;13.30;99.90
20045;DHT22;10183;47.808;9.476;2023-05-23T00:05:59;13.20;99.90
20045;DHT22;10183;47.808;9.476;2023-05-23T00:08:25;13.20;99.90
20045;DHT22;10183;47.808;9.476;2023-05-23T00:10:51;13.30;99.90
20045;DHT22;10183;47.808;9.476;2023-05-23T00:13:18;13.30;99.90
20045;DHT22;10183;47.808;9.476;2023-05-23T00:15:44;13.30;99.90
20045;DHT22;10183;47.808;9.476;2023-05-23T00:18:10;13.30;99.90
20045;DHT22;10183;47.808;9.476;2023-05-23T00:20:37;13.30;99.90
20045;DHT22;10183;47.808;9.476;2023-05-23T00:23:08;13.20;99.90
20045;DHT22;10183;47.808;9.476;2023-05-23T00:25:36;13.20;99.90
20045;DHT22;10183;47.808;9.476;2023-05-23T00:28:03;13.20;99.90
20045;DHT22;10183;47.808;9.476;2023-05-23T00:30:30;13.20;99.90
20045;DHT22;10183;47.808;9.476;2023-05-23T00:32:57;13.20;99.90
20045;DHT22;10183;47.808;9.476;2023-05-23T00:35:24;13.20;99.90
20045;DHT22;10183;47.808;9.476;2023-05-23T00:37:50;12.90;99.90
20045;DHT22;10183;47.808;9.476;2023-05-23T00:40:20;12.90;99.90
20045;DHT22;10183;47.808;9.476;2023-05-23T00:42:47;12.90;99.90
20045;DHT22;10183;47.808;9.476;2023-05-23T00:45:13;12.80;99.90
20045;DHT22;10183;47.808;9.476;2023-05-23T00:47:43;12.90;99.90
20045;DHT22;10183;47.808;9.476;2023-05-23T00:50:11;13.00;99.90
20045;DHT22;10183;47.808;9.476;2023-05-23T00:52:40;13.10;99.90
20045;DHT22;10183;47.808;9.476;2023-05-23T00:55:07;13.10;99.90
20045;DHT22;10183;47.808;9.476;2023-05-23T00:57:34;13.10;99.90
20045;DHT22;10183;47.808;9.476;2023-05-23T01:00:07;13.10;99.90
20045;DHT22;10183;47.808;9.476;2023-05-23T01:02:44;13.10;99.90
20045;DHT22;10183;47.808;9.476;2023-05-23T01:05:12;13.10;99.90
20045;DHT22;10183;47.808;9.476;2023-05-23T01:07:45;13.20;99.90
20045;DHT22;10183;47.808;9.476;2023-05-23T01:10:18;13.10;99.90
20045;DHT22;10183;47.808;9.476;2023-05-23T01:15:29;12.90;99.90
20045;DHT22;10183;47.808;9.476;2023-05-23T01:18:06;12.90;99.90
20045;DHT22;10183;47.808;9.476;2023-05-23T01:20:53;12.90;99.90
20045;DHT22;10183;47.808;9.476;2023-05-23T01:28:59;12.90;99.90
20045;DHT22;10183;47.808;9.476;2023-05-23T01:31:31;12.90;99.90
20045;DHT22;10183;47.808;9.476;2023-05-23T01:33:59;12.70;99.90
20045;DHT22;10183;47.808;9.476;2023-05-23T01:36:26;12.60;99.90
20045;DHT22;10183;47.808;9.476;2023-05-23T01:38:52;12.50;99.90
20045;DHT22;10183;47.808;9.476;2023-05-23T01:41:19;12.50;99.90
20045;DHT22;10183;47.808;9.476;2023-05-23T01:43:45;12.50;99.90
20045;DHT22;10183;47.808;9.476;2023-05-23T01:46:12;12.50;99.90
20045;DHT22;10183;47.808;9.476;2023-05-23T01:48:39;12.50;99.90
20045;DHT22;10183;47.808;9.476;2023-05-23T01:51:06;12.40;99.90
20045;DHT22;10183;47.808;9.476;2023-05-23T01:53:33;12.40;99.90
20045;DHT22;10183;47.808;9.476;2023-05-23T01:56:00;12.50;99.90
20045;DHT22;10183;47.808;9.476;2023-05-23T01:58:28;12.40;99.90
20045;DHT22;10183;47.808;9.476;2023-05-23T02:00:55;12.40;99.90
20045;DHT22;10183;47.808;9.476;2023-05-23T02:03:22;12.50;99.90
20045;DHT22;10183;47.808;9.476;2023-05-23T02:05:49;12.50;99.90
20045;DHT22;10183;47.808;9.476;2023-05-23T02:08:15;12.50;99.90
20045;DHT22;10183;47.808;9.476;2023-05-23T02:10:42;12.40;99.90
20045;DHT22;10183;47.808;9.476;2023-05-23T02:13:08;12.40;99.90
20045;DHT22;10183;47.808;9.476;2023-05-23T02:15:34;12.40;99.90
20045;DHT22;10183;47.808;9.476;2023-05-23T02:18:00;12.40;99.90
20045;DHT22;10183;47.808;9.476;2023-05-23T02:20:28;12.50;99.90
20045;DHT22;10183;47.808;9.476;2023-05-23T02:22:54;12.40;99.90
20045;DHT22;10183;47.808;9.476;2023-05-23T02:25:20;12.30;99.90
20045;DHT22;10183;47.808;9.476;2023-05-23T02:27:46;12.30;99.90
20045;DHT22;10183;47.808;9.476;2023-05-23T02:30:13;12.30;99.90
20045;DHT22;10183;47.808;9.476;2023-05-23T02:32:39;12.30;99.90
20045;DHT22;10183;47.808;9.476;2023-05-23T02:35:05;12.40;99.90
20045;DHT22;10183;47.808;9.476;2023-05-23T02:37:31;12.30;99.90
20045;DHT22;10183;47.808;9.476;2023-05-23T02:39:57;12.40;99.90
20045;DHT22;10183;47.808;9.476;2023-05-23T02:42:24;12.30;99.90
20045;DHT22;10183;47.808;9.476;2023-05-23T02:44:50;12.10;99.90
20045;DHT22;10183;47.808;9.476;2023-05-23T02:47:16;12.10;99.90
20045;DHT22;10183;47.808;9.476;2023-05-23T02:49:42;12.20;99.90
20045;DHT22;10183;47.808;9.476;2023-05-23T02:52:08;12.20;99.90
20045;DHT22;10183;47.808;9.476;2023-05-23T02:54:34;12.10;99.90
20045;DHT22;10183;47.808;9.476;2023-05-23T02:57:00;12.10;99.90
20045;DHT22;10183;47.808;9.476;2023-05-23T02:59:26;11.90;99.90
20045;DHT22;10183;47.808;9.476;2023-05-23T03:01:52;11.80;99.90
20045;DHT22;10183;47.808;9.476;2023-05-23T03:04:19;11.80;99.90
20045;DHT22;10183;47.808;9.476;2023-05-23T03:06:46;11.90;99.90
20045;DHT22;10183;47.808;9.476;2023-05-23T03:09:14;11.80;99.90
20045;DHT22;10183;47.808;9.476;2023-05-23T03:11:42;11.80;99.90
20045;DHT22;10183;47.808;9.476;2023-05-23T03:14:09;11.80;99.90
20045;DHT22;10183;47.808;9.476;2023-05-23T03:16:35;11.90;99.90
20045;DHT22;10183;47.808;9.476;2023-05-23T03:19:01;11.90;99.90
20045;DHT22;10183;47.808;9.476;2023-05-23T03:21:27;11.90;99.90
20045;DHT22;10183;47.808;9.476;2023-05-23T03:23:53;11.90;99.90
20045;DHT22;10183;47.808;9.476;2023-05-23T03:26:19;11.80;99.90
20045;DHT22;10183;47.808;9.476;2023-05-23T03:28:47;11.80;99.90
20045;DHT22;10183;47.808;9.476;2023-05-23T03:31:14;11.70;99.90
20045;DHT22;10183;47.808;9.476;2023-05-23T03:33:40;11.60;99.90
20045;DHT22;10183;47.808;9.476;2023-05-23T03:36:06;11.50;99.90
20045;DHT22;10183;47.808;9.476;2023-05-23T03:38:33;11.50;99.90
20045;DHT22;10183;47.808;9.476;2023-05-23T03:40:59;11.50;99.90
20045;DHT22;10183;47.808;9.476;2023-05-23T03:43:25;11.50;99.90
20045;DHT22;10183;47.808;9.476;2023-05-23T03:45:52;11.40;99.90
20045;DHT22;10183;47.808;9.476;2023-05-23T03:48:18;11.50;99.90
20045;DHT22;10183;47.808;9.476;2023-05-23T03:50:44;11.50;99.90
20045;DHT22;10183;47.808;9.476;2023-05-23T03:53:11;11.50;99.90
20045;DHT22;10183;47.808;9.476;2023-05-23T03:55:38;11.50;99.90
20045;DHT22;10183;47.808;9.476;2023-05-23T03:58:04;11.50;99.90
20045;DHT22;10183;47.808;9.476;2023-05-23T04:00:31;11.60;99.90
20045;DHT22;10183;47.808;9.476;2023-05-23T04:02:57;11.60;99.90
20045;DHT22;10183;47.808;9.476;2023-05-23T04:05:23;11.60;99.90
20045;DHT22;10183;47.808;9.476;2023-05-23T04:07:49;11.50;99.90
20045;DHT22;10183;47.808;9.476;2023-05-23T04:10:16;11.40;99.90
20045;DHT22;10183;47.808;9.476;2023-05-23T04:12:43;11.60;99.90
20045;DHT22;10183;47.808;9.476;2023-05-23T04:15:09;11.70;99.90
20045;DHT22;10183;47.808;9.476;2023-05-23T04:17:36;11.50;99.90
20045;DHT22;10183;47.808;9.476;2023-05-23T04:20:06;11.50;99.90
20045;DHT22;10183;47.808;9.476;2023-05-23T04:22:34;11.40;99.90
20045;DHT22;10183;47.808;9.476;2023-05-23T04:25:00;11.60;99.90
20045;DHT22;10183;47.808;9.476;2023-05-23T04:27:26;11.70;99.90
20045;DHT22;10183;47.808;9.476;2023-05-23T04:29:52;11.70;99.90
20045;DHT22;10183;47.808;9.476;2023-05-23T04:32:19;11.80;99.90
20045;DHT22;10183;47.808;9.476;2023-05-23T04:34:47;11.90;99.90
20045;DHT22;10183;47.808;9.476;2023-05-23T04:37:15;12.00;99.90
20045;DHT22;10183;47.808;9.476;2023-05-23T04:39:42;12.00;99.90
20045;DHT22;10183;47.808;9.476;2023-05-23T04:42:08;12.20;99.90
20045;DHT22;10183;47.808;9.476;2023-05-23T04:44:34;12.20;99.90
20045;DHT22;10183;47.808;9.476;2023-05-23T04:47:03;12.10;99.90
20045;DHT22;10183;47.808;9.476;2023-05-23T04:49:29;12.10;99.90
20045;DHT22;10183;47.808;9.476;2023-05-23T04:51:58;12.30;99.90
20045;DHT22;10183;47.808;9.476;2023-05-23T04:54:25;12.30;99.90
20045;DHT22;10183;47.808;9.476;2023-05-23T04:56:52;12.40;99.90
20045;DHT22;10183;47.808;9.476;2023-05-23T04:59:18;12.50;99.90
20045;DHT22;10183;47.808;9.476;2023-05-23T05:01:44;12.60;99.90
20045;DHT22;10183;47.808;9.476;2023-05-23T05:04:10;12.50;99.90
20045;DHT22;10183;47.808;9.476;2023-05-23T05:06:37;12.50;99.90
20045;DHT22;10183;47.808;9.476;2023-05-23T05:09:03;12.70;99.90
20045;DHT22;10183;47.808;9.476;2023-05-23T05:11:29;12.70;99.90
20045;DHT22;10183;47.808;9.476;2023-05-23T05:13:55;12.80;99.90
20045;DHT22;10183;47.808;9.476;2023-05-23T05:16:21;12.90;99.90
20045;DHT22;10183;47.808;9.476;2023-05-23T05:18:47;13.00;99.90
20045;DHT22;10183;47.808;9.476;2023-05-23T05:21:13;13.10;99.90
20045;DHT22;10183;47.808;9.476;2023-05-23T05:23:40;13.20;99.90
20045;DHT22;10183;47.808;9.476;2023-05-23T05:26:06;13.40;99.90
20045;DHT22;10183;47.808;9.476;2023-05-23T05:28:33;13.60;99.90
20045;DHT22;10183;47.808;9.476;2023-05-23T05:30:59;13.80;99.90
20045;DHT22;10183;47.808;9.476;2023-05-23T05:33:29;13.90;99.90
20045;DHT22;10183;47.808;9.476;2023-05-23T05:36:02;14.10;99.90
20045;DHT22;10183;47.808;9.476;2023-05-23T05:38:28;14.20;99.90
20045;DHT22;10183;47.808;9.476;2023-05-23T05:40:55;14.30;99.90
20045;DHT22;10183;47.808;9.476;2023-05-23T05:43:21;14.40;99.90
20045;DHT22;10183;47.808;9.476;2023-05-23T05:45:47;14.50;99.90
20045;DHT22;10183;47.808;9.476;2023-05-23T05:48:13;14.60;99.90
20045;DHT22;10183;47.808;9.476;2023-05-23T05:50:39;14.60;99.90
20045;DHT22;10183;47.808;9.476;2023-05-23T05:53:06;14.70;99.90
20045;DHT22;10183;47.808;9.476;2023-05-23T05:55:33;14.80;99.90
20045;DHT22;10183;47.808;9.476;2023-05-23T05:57:59;14.90;99.90
20045;DHT22;10183;47.808;9.476;2023-05-23T06:00:26;15.00;99.90
20045;DHT22;10183;47.808;9.476;2023-05-23T06:02:52;15.30;99.90
20045;DHT22;10183;47.808;9.476;2023-05-23T06:05:22;15.40;99.90
20045;DHT22;10183;47.808;9.476;2023-05-23T06:07:49;15.60;99.90
20045;DHT22;10183;47.808;9.476;2023-05-23T06:10:16;15.80;99.90
20045;DHT22;10183;47.808;9.476;2023-05-23T06:12:42;15.80;99.90
20045;DHT22;10183;47.808;9.476;2023-05-23T06:15:09;16.00;99.90
20045;DHT22;10183;47.808;9.476;2023-05-23T06:17:35;16.00;99.90
20045;DHT22;10183;47.808;9.476;2023-05-23T06:20:01;16.10;99.90
20045;DHT22;10183;47.808;9.476;2023-05-23T06:22:28;16.20;99.90
20045;DHT22;10183;47.808;9.476;2023-05-23T06:24:55;16.40;99.90
20045;DHT22;10183;47.808;9.476;2023-05-23T06:27:21;16.50;99.90
20045;DHT22;10183;47.808;9.476;2023-05-23T06:29:47;16.40;99.90
20045;DHT22;10183;47.808;9.476;2023-05-23T06:32:13;16.50;99.90
20045;DHT22;10183;47.808;9.476;2023-05-23T06:34:39;16.50;99.90
20045;DHT22;10183;47.808;9.476;2023-05-23T06:37:06;16.60;99.90
20045;DHT22;10183;47.808;9.476;2023-05-23T06:39:32;16.60;99.90
20045;DHT22;10183;47.808;9.476;2023-05-23T06:41:58;16.70;99.90
20045;DHT22;10183;47.808;9.476;2023-05-23T06:44:25;16.80;99.90
20045;DHT22;10183;47.808;9.476;2023-05-23T06:46:52;17.00;99.90
20045;DHT22;10183;47.808;9.476;2023-05-23T06:49:23;17.30;99.90
20045;DHT22;10183;47.808;9.476;2023-05-23T06:51:49;17.30;99.90
20045;DHT22;10183;47.808;9.476;2023-05-23T06:54:16;17.60;99.90
20045;DHT22;10183;47.808;9.476;2023-05-23T06:56:42;17.60;99.90
20045;DHT22;10183;47.808;9.476;2023-05-23T06:59:09;17.50;99.90
20045;DHT22;10183;47.808;9.476;2023-05-23T07:01:35;17.50;99.90
20045;DHT22;10183;47.808;9.476;2023-05-23T07:04:01;17.60;99.90
20045;DHT22;10183;47.808;9.476;2023-05-23T07:06:27;17.60;99.90
20045;DHT22;10183;47.808;9.476;2023-05-23T07:08:54;17.50;99.90
20045;DHT22;10183;47.808;9.476;2023-05-23T07:11:21;17.30;99.90
20045;DHT22;10183;47.808;9.476;2023-05-23T07:13:47;17.00;99.90
20045;DHT22;10183;47.808;9.476;2023-05-23T07:16:13;16.80;99.90
20045;DHT22;10183;47.808;9.476;2023-05-23T07:18:40;16.70;99.90
20045;DHT22;10183;47.808;9.476;2023-05-23T07:21:06;16.70;99.90
20045;DHT22;10183;47.808;9.476;2023-05-23T07:23:32;16.70;99.90
20045;DHT22;10183;47.808;9.476;2023-05-23T07:26:00;16.90;99.90
20045;DHT22;10183;47.808;9.476;2023-05-23T07:28:27;16.90;99.90
20045;DHT22;10183;47.808;9.476;2023-05-23T07:30:54;17.00;99.90
20045;DHT22;10183;47.808;9.476;2023-05-23T07:33:22;17.00;99.90
20045;DHT22;10183;47.808;9.476;2023-05-23T07:35:48;17.00;99.90
20045;DHT22;10183;47.808;9.476;2023-05-23T07:38:15;17.00;99.90
20045;DHT22;10183;47.808;9.476;2023-05-23T07:40:43;17.00;99.90
20045;DHT22;10183;47.808;9.476;2023-05-23T07:43:09;17.00;99.90
20045;DHT22;10183;47.808;9.476;2023-05-23T07:45:35;17.00;99.90
20045;DHT22;10183;47.808;9.476;2023-05-23T07:48:01;17.00;99.90
20045;DHT22;10183;47.808;9.476;2023-05-23T07:50:27;17.10;99.90
20045;DHT22;10183;47.808;9.476;2023-05-23T07:52:53;17.30;99.90
20045;DHT22;10183;47.808;9.476;2023-05-23T07:55:20;17.40;99.90
20045;DHT22;10183;47.808;9.476;2023-05-23T07:57:46;17.50;99.90
20045;DHT22;10183;47.808;9.476;2023-05-23T08:00:13;17.50;99.90
20045;DHT22;10183;47.808;9.476;2023-05-23T08:02:39;17.50;99.90
20045;DHT22;10183;47.808;9.476;2023-05-23T08:05:06;17.70;99.90
20045;DHT22;10183;47.808;9.476;2023-05-23T08:07:33;17.90;99.90
20045;DHT22;10183;47.808;9.476;2023-05-23T08:09:59;18.00;99.90
20045;DHT22;10183;47.808;9.476;2023-05-23T08:12:26;18.20;99.90
20045;DHT22;10183;47.808;9.476;2023-05-23T08:14:52;18.30;99.90
20045;DHT22;10183;47.808;9.476;2023-05-23T08:17:18;18.40;99.90
20045;DHT22;10183;47.808;9.476;2023-05-23T08:19:44;18.30;99.90
20045;DHT22;10183;47.808;9.476;2023-05-23T08:22:11;18.40;99.90
20045;DHT22;10183;47.808;9.476;2023-05-23T08:24:37;18.50;99.90
20045;DHT22;10183;47.808;9.476;2023-05-23T08:27:04;18.50;99.90
20045;DHT22;10183;47.808;9.476;2023-05-23T08:29:31;18.60;99.90
20045;DHT22;10183;47.808;9.476;2023-05-23T08:31:58;18.80;99.90
20045;DHT22;10183;47.808;9.476;2023-05-23T08:34:24;18.70;99.90
20045;DHT22;10183;47.808;9.476;2023-05-23T08:36:50;18.60;99.90
20045;DHT22;10183;47.808;9.476;2023-05-23T08:39:17;18.70;99.90
20045;DHT22;10183;47.808;9.476;2023-05-23T08:41:43;18.60;99.90
20045;DHT22;10183;47.808;9.476;2023-05-23T08:44:10;18.30;99.90
20045;DHT22;10183;47.808;9.476;2023-05-23T08:46:43;18.10;99.90
20045;DHT22;10183;47.808;9.476;2023-05-23T08:49:12;18.20;99.90
20045;DHT22;10183;47.808;9.476;2023-05-23T08:51:42;18.30;99.90
20045;DHT22;10183;47.808;9.476;2023-05-23T08:54:09;18.40;99.90
20045;DHT22;10183;47.808;9.476;2023-05-23T08:56:38;18.50;99.90
20045;DHT22;10183;47.808;9.476;2023-05-23T08:59:07;18.60;99.90
20045;DHT22;10183;47.808;9.476;2023-05-23T09:01:34;18.90;99.90
20045;DHT22;10183;47.808;9.476;2023-05-23T09:04:01;19.10;99.90
20045;DHT22;10183;47.808;9.476;2023-05-23T09:06:30;19.70;99.90
20045;DHT22;10183;47.808;9.476;2023-05-23T09:08:57;20.30;99.90
20045;DHT22;10183;47.808;9.476;2023-05-23T09:11:23;19.80;99.90
20045;DHT22;10183;47.808;9.476;2023-05-23T09:13:50;19.70;99.90
20045;DHT22;10183;47.808;9.476;2023-05-23T09:16:16;19.30;99.90
20045;DHT22;10183;47.808;9.476;2023-05-23T09:18:44;19.80;99.90
20045;DHT22;10183;47.808;9.476;2023-05-23T09:21:11;20.20;99.90
20045;DHT22;10183;47.808;9.476;2023-05-23T09:23:40;20.90;99.90
20045;DHT22;10183;47.808;9.476;2023-05-23T09:26:08;19.90;99.90
20045;DHT22;10183;47.808;9.476;2023-05-23T09:28:36;20.00;99.90
20045;DHT22;10183;47.808;9.476;2023-05-23T09:31:04;20.00;99.90
20045;DHT22;10183;47.808;9.476;2023-05-23T09:33:41;20.00;99.90
20045;DHT22;10183;47.808;9.476;2023-05-23T09:36:09;19.80;99.90
20045;DHT22;10183;47.808;9.476;2023-05-23T09:38:41;19.90;99.90
20045;DHT22;10183;47.808;9.476;2023-05-23T09:41:08;19.80;99.90
20045;DHT22;10183;47.808;9.476;2023-05-23T09:43:38;20.00;99.90
20045;DHT22;10183;47.808;9.476;2023-05-23T09:46:11;20.00;99.90
20045;DHT22;10183;47.808;9.476;2023-05-23T09:48:38;19.90;99.90
20045;DHT22;10183;47.808;9.476;2023-05-23T09:51:07;19.90;99.90
20045;DHT22;10183;47.808;9.476;2023-05-23T09:53:34;19.80;99.90
20045;DHT22;10183;47.808;9.476;2023-05-23T09:56:04;19.70;99.90
20045;DHT22;10183;47.808;9.476;2023-05-23T09:58:32;19.60;99.90
20045;DHT22;10183;47.808;9.476;2023-05-23T10:01:01;19.30;99.90
20045;DHT22;10183;47.808;9.476;2023-05-23T10:03:49;19.10;99.90
20045;DHT22;10183;47.808;9.476;2023-05-23T10:06:40;18.90;99.90
20045;DHT22;10183;47.808;9.476;2023-05-23T10:09:12;18.70;99.90
20045;DHT22;10183;47.808;9.476;2023-05-23T10:12:33;18.70;99.90
20045;DHT22;10183;47.808;9.476;2023-05-23T10:15:07;18.80;99.90
20045;DHT22;10183;47.808;9.476;2023-05-23T10:18:09;18.90;99.90
20045;DHT22;10183;47.808;9.476;2023-05-23T10:20:38;19.00;99.90
20045;DHT22;10183;47.808;9.476;2023-05-23T10:23:05;19.30;99.90
20045;DHT22;10183;47.808;9.476;2023-05-23T10:25:31;19.30;99.90
20045;DHT22;10183;47.808;9.476;2023-05-23T10:28:01;19.10;99.90
20045;DHT22;10183;47.808;9.476;2023-05-23T10:30:27;19.10;99.90
20045;DHT22;10183;47.808;9.476;2023-05-23T10:32:55;19.10;99.90
20045;DHT22;10183;47.808;9.476;2023-05-23T10:46:07;18.90;99.90
20045;DHT22;10183;47.808;9.476;2023-05-23T10:48:35;18.90;99.90
20045;DHT22;10183;47.808;9.476;2023-05-23T10:51:10;19.30;99.90
20045;DHT22;10183;47.808;9.476;2023-05-23T10:53:42;19.60;99.90
20045;DHT22;10183;47.808;9.476;2023-05-23T10:56:09;20.50;99.90
20045;DHT22;10183;47.808;9.476;2023-05-23T10:58:37;21.60;99.90
20045;DHT22;10183;47.808;9.476;2023-05-23T11:01:06;22.50;99.90
20045;DHT22;10183;47.808;9.476;2023-05-23T11:06:31;23.20;99.90
20045;DHT22;10183;47.808;9.476;2023-05-23T11:09:09;22.80;99.90
20045;DHT22;10183;47.808;9.476;2023-05-23T11:12:01;22.60;99.90
20045;DHT22;10183;47.808;9.476;2023-05-23T11:14:32;22.40;99.90
20045;DHT22;10183;47.808;9.476;2023-05-23T11:17:47;21.40;99.90
20045;DHT22;10183;47.808;9.476;2023-05-23T11:20:06;20.00;99.90
20045;DHT22;10183;47.808;9.476;2023-05-23T11:22:34;19.50;99.90
20045;DHT22;10183;47.808;9.476;2023-05-23T11:25:06;18.90;99.90
20045;DHT22;10183;47.808;9.476;2023-05-23T11:27:34;18.50;99.90
20045;DHT22;10183;47.808;9.476;2023-05-23T11:32:38;17.80;99.90
20045;DHT22;10183;47.808;9.476;2023-05-23T11:35:09;17.60;99.90
20045;DHT22;10183;47.808;9.476;2023-05-23T11:37:39;17.50;99.90
20045;DHT22;10183;47.808;9.476;2023-05-23T11:40:38;17.50;99.90
20045;DHT22;10183;47.808;9.476;2023-05-23T11:43:15;17.50;99.90
20045;DHT22;10183;47.808;9.476;2023-05-23T11:45:43;17.50;99.90
20045;DHT22;10183;47.808;9.476;2023-05-23T11:48:13;17.50;99.90
20045;DHT22;10183;47.808;9.476;2023-05-23T11:50:48;17.50;99.90
20045;DHT22;10183;47.808;9.476;2023-05-23T11:53:15;17.50;99.90
20045;DHT22;10183;47.808;9.476;2023-05-23T11:55:51;17.70;99.90
20045;DHT22;10183;47.808;9.476;2023-05-23T11:58:29;17.60;99.90
20045;DHT22;10183;47.808;9.476;2023-05-23T12:01:04;17.80;99.90
20045;DHT22;10183;47.808;9.476;2023-05-23T12:03:32;18.00;99.90
20045;DHT22;10183;47.808;9.476;2023-05-23T12:05:59;18.20;99.90
20045;DHT22;10183;47.808;9.476;2023-05-23T12:08:27;18.60;99.90
20045;DHT22;10183;47.808;9.476;2023-05-23T12:10:57;18.90;99.90
20045;DHT22;10183;47.808;9.476;2023-05-23T12:13:25;19.40;99.90
20045;DHT22;10183;47.808;9.476;2023-05-23T12:15:54;20.30;99.90
20045;DHT22;10183;47.808;9.476;2023-05-23T12:18:21;21.80;99.90
20045;DHT22;10183;47.808;9.476;2023-05-23T12:20:52;22.70;99.90
20045;DHT22;10183;47.808;9.476;2023-05-23T12:23:22;23.50;99.90
20045;DHT22;10183;47.808;9.476;2023-05-23T12:25:52;23.70;99.90
20045;DHT22;10183;47.808;9.476;2023-05-23T12:28:20;24.10;99.90
20045;DHT22;10183;47.808;9.476;2023-05-23T12:30:46;23.90;99.90
20045;DHT22;10183;47.808;9.476;2023-05-23T12:33:14;24.40;99.90
20045;DHT22;10183;47.808;9.476;2023-05-23T12:35:43;24.60;99.90
20045;DHT22;10183;47.808;9.476;2023-05-23T12:38:14;24.40;99.90
20045;DHT22;10183;47.808;9.476;2023-05-23T12:40:42;23.90;99.90
20045;DHT22;10183;47.808;9.476;2023-05-23T12:43:09;24.10;99.90
20045;DHT22;10183;47.808;9.476;2023-05-23T12:45:38;24.60;99.90
20045;DHT22;10183;47.808;9.476;2023-05-23T12:48:05;24.70;99.90
20045;DHT22;10183;47.808;9.476;2023-05-23T12:50:32;24.90;99.90
20045;DHT22;10183;47.808;9.476;2023-05-23T12:52:58;25.10;99.90
20045;DHT22;10183;47.808;9.476;2023-05-23T12:55:24;25.20;99.90
20045;DHT22;10183;47.808;9.476;2023-05-23T12:57:51;25.20;99.90
20045;DHT22;10183;47.808;9.476;2023-05-23T13:00:17;24.80;99.90
20045;DHT22;10183;47.808;9.476;2023-05-23T13:02:44;24.60;99.90
20045;DHT22;10183;47.808;9.476;2023-05-23T13:05:11;25.00;99.90
20045;DHT22;10183;47.808;9.476;2023-05-23T13:07:37;25.00;99.90
20045;DHT22;10183;47.808;9.476;2023-05-23T13:10:03;23.90;99.90
20045;DHT22;10183;47.808;9.476;2023-05-23T13:12:29;23.40;99.90
20045;DHT22;10183;47.808;9.476;2023-05-23T13:14:55;23.20;99.90
20045;DHT22;10183;47.808;9.476;2023-05-23T13:17:23;23.00;99.90
20045;DHT22;10183;47.808;9.476;2023-05-23T13:19:49;23.70;99.90
20045;DHT22;10183;47.808;9.476;2023-05-23T13:22:16;23.70;99.90
20045;DHT22;10183;47.808;9.476;2023-05-23T13:24:42;23.50;99.90
20045;DHT22;10183;47.808;9.476;2023-05-23T13:27:08;24.70;99.90
20045;DHT22;10183;47.808;9.476;2023-05-23T13:29:35;25.70;99.90
20045;DHT22;10183;47.808;9.476;2023-05-23T13:32:01;26.50;99.90
20045;DHT22;10183;47.808;9.476;2023-05-23T13:34:27;26.00;99.90
20045;DHT22;10183;47.808;9.476;2023-05-23T13:36:53;25.10;99.90
20045;DHT22;10183;47.808;9.476;2023-05-23T13:39:20;24.20;99.90
20045;DHT22;10183;47.808;9.476;2023-05-23T13:41:48;23.30;99.90
20045;DHT22;10183;47.808;9.476;2023-05-23T13:44:15;22.80;99.90
20045;DHT22;10183;47.808;9.476;2023-05-23T13:46:42;22.40;99.90
20045;DHT22;10183;47.808;9.476;2023-05-23T13:49:08;22.40;99.90
20045;DHT22;10183;47.808;9.476;2023-05-23T13:51:34;22.30;99.90
20045;DHT22;10183;47.808;9.476;2023-05-23T13:54:03;21.50;99.90
20045;DHT22;10183;47.808;9.476;2023-05-23T13:56:29;20.80;99.90
20045;DHT22;10183;47.808;9.476;2023-05-23T13:58:56;20.40;99.90
20045;DHT22;10183;47.808;9.476;2023-05-23T14:01:22;20.00;99.90
20045;DHT22;10183;47.808;9.476;2023-05-23T14:03:49;19.90;99.90
20045;DHT22;10183;47.808;9.476;2023-05-23T14:06:15;19.70;99.90
20045;DHT22;10183;47.808;9.476;2023-05-23T14:08:41;19.50;99.90
20045;DHT22;10183;47.808;9.476;2023-05-23T14:11:07;19.40;99.90
20045;DHT22;10183;47.808;9.476;2023-05-23T14:13:33;19.50;99.90
20045;DHT22;10183;47.808;9.476;2023-05-23T14:16:00;19.40;99.90
20045;DHT22;10183;47.808;9.476;2023-05-23T14:18:26;19.50;99.90
20045;DHT22;10183;47.808;9.476;2023-05-23T14:20:52;19.50;99.90
20045;DHT22;10183;47.808;9.476;2023-05-23T14:23:18;19.50;99.90
20045;DHT22;10183;47.808;9.476;2023-05-23T14:25:44;19.40;99.90
20045;DHT22;10183;47.808;9.476;2023-05-23T14:28:12;19.40;99.90
20045;DHT22;10183;47.808;9.476;2023-05-23T14:30:38;19.30;99.90
20045;DHT22;10183;47.808;9.476;2023-05-23T14:33:04;19.30;99.90
20045;DHT22;10183;47.808;9.476;2023-05-23T14:35:30;19.40;99.90
20045;DHT22;10183;47.808;9.476;2023-05-23T14:37:56;19.40;99.90
20045;DHT22;10183;47.808;9.476;2023-05-23T14:40:22;19.40;99.90
20045;DHT22;10183;47.808;9.476;2023-05-23T14:42:49;19.30;99.90
20045;DHT22;10183;47.808;9.476;2023-05-23T14:45:15;19.30;99.90
20045;DHT22;10183;47.808;9.476;2023-05-23T14:47:41;19.50;99.90
20045;DHT22;10183;47.808;9.476;2023-05-23T14:50:07;19.60;99.90
20045;DHT22;10183;47.808;9.476;2023-05-23T14:52:34;19.60;99.90
20045;DHT22;10183;47.808;9.476;2023-05-23T14:55:00;20.00;99.90
20045;DHT22;10183;47.808;9.476;2023-05-23T14:57:26;20.10;99.90
20045;DHT22;10183;47.808;9.476;2023-05-23T14:59:52;20.30;99.90
20045;DHT22;10183;47.808;9.476;2023-05-23T15:02:19;20.70;99.90
20045;DHT22;10183;47.808;9.476;2023-05-23T15:04:45;21.00;99.90
20045;DHT22;10183;47.808;9.476;2023-05-23T15:07:11;21.20;99.90
20045;DHT22;10183;47.808;9.476;2023-05-23T15:09:39;21.60;99.90
20045;DHT22;10183;47.808;9.476;2023-05-23T15:12:06;22.10;99.90
20045;DHT22;10183;47.808;9.476;2023-05-23T15:14:34;23.10;99.90
20045;DHT22;10183;47.808;9.476;2023-05-23T15:17:01;24.10;99.90
20045;DHT22;10183;47.808;9.476;2023-05-23T15:19:35;24.60;99.90
20045;DHT22;10183;47.808;9.476;2023-05-23T15:22:03;25.10;99.90
20045;DHT22;10183;47.808;9.476;2023-05-23T15:24:30;26.30;99.90
20045;DHT22;10183;47.808;9.476;2023-05-23T15:26:56;26.30;99.90
20045;DHT22;10183;47.808;9.476;2023-05-23T15:29:22;26.20;99.90
20045;DHT22;10183;47.808;9.476;2023-05-23T15:31:50;26.50;99.90
20045;DHT22;10183;47.808;9.476;2023-05-23T15:34:17;25.60;99.90
20045;DHT22;10183;47.808;9.476;2023-05-23T15:36:43;25.20;99.90
20045;DHT22;10183;47.808;9.476;2023-05-23T15:39:10;24.40;99.90
20045;DHT22;10183;47.808;9.476;2023-05-23T15:41:37;23.70;99.90
20045;DHT22;10183;47.808;9.476;2023-05-23T15:44:03;22.90;99.90
20045;DHT22;10183;47.808;9.476;2023-05-23T15:46:30;22.40;99.90
20045;DHT22;10183;47.808;9.476;2023-05-23T15:48:56;22.00;99.90
20045;DHT22;10183;47.808;9.476;2023-05-23T15:51:25;21.50;99.90
20045;DHT22;10183;47.808;9.476;2023-05-23T15:53:53;21.50;99.90
20045;DHT22;10183;47.808;9.476;2023-05-23T15:56:20;21.90;99.90
20045;DHT22;10183;47.808;9.476;2023-05-23T15:58:46;22.40;99.90